createdAt,value
2018-07-11T00:00:47.233Z,5.10
2018-07-11T00:03:16.983Z,3.10
2018-07-11T00:05:45.446Z,1.80
2018-07-11T00:08:13.777Z,2.27
2018-07-11T00:10:42.117Z,3.83
2018-07-11T00:13:10.581Z,2.63
2018-07-11T00:15:38.923Z,3.80
2018-07-11T00:18:07.382Z,3.83
2018-07-11T00:20:35.782Z,3.80
2018-07-11T00:23:04.222Z,2.90
2018-07-11T00:25:32.678Z,4.30
2018-07-11T00:28:01.110Z,3.30
2018-07-11T00:30:29.551Z,2.73
2018-07-11T00:32:57.918Z,4.30
2018-07-11T00:35:26.442Z,5.50
2018-07-11T00:37:54.882Z,2.43
2018-07-11T00:40:23.220Z,4.43
2018-07-11T00:42:51.768Z,2.77
2018-07-11T00:45:21.977Z,3.10
2018-07-11T00:47:50.474Z,3.00
2018-07-11T00:50:18.948Z,2.83
2018-07-11T00:52:47.334Z,3.53
2018-07-11T00:55:15.906Z,3.20
2018-07-11T00:57:44.249Z,3.27
2018-07-11T01:00:12.784Z,6.93
2018-07-11T01:02:41.317Z,7.97
2018-07-11T01:05:09.697Z,3.80
2018-07-11T01:07:38.213Z,5.60
2018-07-11T01:10:07.340Z,4.47
2018-07-11T01:12:35.786Z,6.50
2018-07-11T01:15:04.257Z,5.20
2018-07-11T01:17:40.841Z,8.60
2018-07-11T01:20:09.383Z,2.80
2018-07-11T01:22:37.728Z,3.00
2018-07-11T01:25:09.156Z,5.90
2018-07-11T01:27:37.373Z,4.03
2018-07-11T01:30:06.162Z,5.40
2018-07-11T01:32:35.016Z,8.47
2018-07-11T01:35:04.013Z,2.60
2018-07-11T01:37:32.517Z,2.83
2018-07-11T01:40:00.977Z,3.80
2018-07-11T01:42:29.409Z,4.37
2018-07-11T01:44:57.798Z,4.80
2018-07-11T01:47:26.828Z,4.30
2018-07-11T01:49:55.273Z,3.83
2018-07-11T01:52:57.382Z,2.40
2018-07-11T01:55:26.549Z,2.77
2018-07-11T01:57:58.903Z,3.50
2018-07-11T02:00:27.869Z,3.50
2018-07-11T02:02:56.387Z,7.07
2018-07-11T02:05:26.065Z,8.63
2018-07-11T02:07:54.961Z,3.83
2018-07-11T02:10:23.818Z,4.40
2018-07-11T02:12:52.167Z,5.17
2018-07-11T02:15:20.495Z,5.10
2018-07-11T02:17:49.548Z,7.40
2018-07-11T02:20:18.191Z,4.10
2018-07-11T02:22:50.376Z,3.80
2018-07-11T02:25:19.866Z,5.10
2018-07-11T02:27:48.837Z,5.37
2018-07-11T02:30:17.570Z,11.00
2018-07-11T02:32:45.967Z,8.00
2018-07-11T02:35:14.483Z,4.30
2018-07-11T02:37:42.829Z,4.97
2018-07-11T02:40:11.142Z,6.30
2018-07-11T02:42:39.372Z,3.90
2018-07-11T02:45:07.761Z,4.43
2018-07-11T02:47:42.838Z,5.97
2018-07-11T02:50:11.912Z,5.63
2018-07-11T02:52:40.917Z,7.20
2018-07-11T02:55:09.137Z,6.07
2018-07-11T02:57:37.483Z,6.73
2018-07-11T03:00:06.037Z,4.20
2018-07-11T03:02:34.413Z,5.97
2018-07-11T03:05:02.637Z,3.93
2018-07-11T03:07:31.037Z,7.30
2018-07-11T03:09:59.409Z,5.53
2018-07-11T03:12:27.784Z,3.43
2018-07-11T03:14:56.150Z,6.33
2018-07-11T03:17:24.466Z,7.50
2018-07-11T03:19:52.837Z,5.97
2018-07-11T03:22:21.233Z,6.07
2018-07-11T03:24:49.444Z,5.67
2018-07-11T03:27:18.222Z,10.00
2018-07-11T03:29:46.537Z,4.67
2018-07-11T03:32:15.117Z,6.70
2018-07-11T03:34:43.606Z,6.80
2018-07-11T03:37:12.000Z,6.50
2018-07-11T03:39:41.201Z,9.97
2018-07-11T03:42:10.219Z,7.17
2018-07-11T03:44:38.772Z,4.70
2018-07-11T03:47:07.230Z,8.60
2018-07-11T03:49:35.608Z,5.93
2018-07-11T03:52:04.765Z,5.80
2018-07-11T03:54:34.069Z,6.70
2018-07-11T03:57:02.453Z,6.83
2018-07-11T03:59:30.752Z,8.23
2018-07-11T04:01:59.225Z,7.23
2018-07-11T04:04:27.598Z,8.00
2018-07-11T04:06:55.920Z,9.30
2018-07-11T04:09:24.432Z,11.50
2018-07-11T04:11:53.026Z,5.30
2018-07-11T04:14:22.210Z,8.10
2018-07-11T04:16:50.408Z,8.23
2018-07-11T04:19:18.718Z,12.00
2018-07-11T04:21:47.095Z,5.33
2018-07-11T04:24:15.469Z,5.40
2018-07-11T04:26:43.911Z,7.60
2018-07-11T04:29:12.400Z,10.77
2018-07-11T04:31:40.725Z,6.57
2018-07-11T04:34:09.155Z,9.30
2018-07-11T04:36:37.590Z,7.17
2018-07-11T04:39:06.000Z,9.03
2018-07-11T04:41:34.414Z,8.30
2018-07-11T04:44:02.714Z,7.93
2018-07-11T04:46:31.180Z,8.10
2018-07-11T04:48:59.901Z,7.87
2018-07-11T04:51:28.330Z,7.57
2018-07-11T04:53:56.813Z,9.50
2018-07-11T04:56:26.173Z,9.87
2018-07-11T04:58:54.595Z,7.13
2018-07-11T05:01:22.926Z,8.60
2018-07-11T05:03:51.366Z,7.00
2018-07-11T05:06:19.734Z,13.93
2018-07-11T05:08:47.929Z,9.80
2018-07-11T05:11:16.343Z,12.27
2018-07-11T05:13:44.677Z,10.77
2018-07-11T05:16:13.108Z,7.90
2018-07-11T05:18:44.157Z,16.80
2018-07-11T05:21:13.104Z,9.07
2018-07-11T05:23:41.450Z,6.67
2018-07-11T05:26:09.754Z,9.77
2018-07-11T05:28:38.140Z,5.97
2018-07-11T05:31:06.449Z,10.47
2018-07-11T05:33:34.891Z,12.03
2018-07-11T05:36:03.236Z,12.80
2018-07-11T05:38:31.465Z,11.50
2018-07-11T05:40:59.997Z,10.07
2018-07-11T05:43:28.364Z,16.53
2018-07-11T05:45:56.785Z,9.90
2018-07-11T05:48:26.038Z,10.93
2018-07-11T05:50:54.479Z,10.47
2018-07-11T05:53:22.882Z,10.23
2018-07-11T05:55:51.316Z,15.13
2018-07-11T05:58:19.802Z,10.07
2018-07-11T06:00:48.247Z,17.43
2018-07-11T06:03:16.536Z,13.40
2018-07-11T06:05:44.984Z,14.03
2018-07-11T06:08:13.286Z,10.07
2018-07-11T06:10:42.450Z,13.73
2018-07-11T06:13:10.713Z,14.93
2018-07-11T06:15:39.286Z,12.10
2018-07-11T06:18:07.787Z,12.30
2018-07-11T06:20:36.130Z,11.83
2018-07-11T06:23:04.645Z,11.87
2018-07-11T06:25:33.057Z,7.27
2018-07-11T06:28:01.415Z,7.90
2018-07-11T06:30:29.801Z,11.43
2018-07-11T06:32:58.244Z,7.10
2018-07-11T06:35:26.558Z,12.77
2018-07-11T06:37:55.009Z,10.13
2018-07-11T06:40:23.507Z,12.10
2018-07-11T06:42:51.960Z,16.30
2018-07-11T06:45:20.343Z,9.60
2018-07-11T06:47:48.660Z,9.90
2018-07-11T06:50:16.997Z,7.87
2018-07-11T06:52:45.340Z,8.97
2018-07-11T06:55:14.063Z,12.27
2018-07-11T06:57:43.359Z,11.70
2018-07-11T07:00:11.604Z,11.00
2018-07-11T07:02:40.009Z,15.23
2018-07-11T07:05:08.385Z,8.50
2018-07-11T07:07:37.705Z,12.10
2018-07-11T07:10:06.178Z,15.00
2018-07-11T07:12:34.609Z,16.93
2018-07-11T07:15:03.073Z,16.13
2018-07-11T07:17:31.467Z,10.47
2018-07-11T07:19:59.895Z,12.90
2018-07-11T07:22:32.525Z,12.10
2018-07-11T07:25:00.904Z,11.80
2018-07-11T07:27:29.339Z,13.43
2018-07-11T07:29:57.733Z,13.13
2018-07-11T07:32:26.168Z,8.17
2018-07-11T07:34:54.588Z,13.17
2018-07-11T07:37:23.031Z,11.03
2018-07-11T07:39:51.304Z,10.50
2018-07-11T07:42:19.766Z,17.70
2018-07-11T07:44:48.226Z,8.27
2018-07-11T07:47:22.298Z,14.37
2018-07-11T07:49:50.834Z,18.77
2018-07-11T07:52:19.373Z,12.90
2018-07-11T07:54:47.834Z,11.53
2018-07-11T07:57:16.363Z,19.17
2018-07-11T07:59:44.939Z,20.83
2018-07-11T08:02:13.477Z,12.40
2018-07-11T08:04:41.896Z,9.90
2018-07-11T08:07:10.351Z,12.20
2018-07-11T08:09:38.680Z,12.13
2018-07-11T08:12:07.080Z,9.47
2018-07-11T08:14:35.486Z,11.10
2018-07-11T08:17:03.888Z,12.37
2018-07-11T08:19:32.189Z,11.23
2018-07-11T08:23:18.796Z,12.87
2018-07-11T08:26:04.884Z,13.90
2018-07-11T08:30:46.679Z,11.10
2018-07-11T08:34:49.197Z,13.97
2018-07-11T08:41:48.498Z,11.23
2018-07-11T08:47:36.354Z,9.50
2018-07-11T08:50:30.313Z,9.50
2018-07-11T08:53:24.533Z,12.43
2018-07-11T08:56:07.545Z,10.47
2018-07-11T09:00:58.017Z,11.27
2018-07-11T09:05:45.767Z,16.83
2018-07-11T09:10:38.951Z,10.87
2018-07-11T09:13:43.605Z,7.70
2018-07-11T09:18:29.610Z,11.97
2018-07-11T09:23:17.258Z,13.40
2018-07-11T09:25:45.604Z,12.67
2018-07-11T09:28:13.963Z,10.60
2018-07-11T09:30:42.365Z,9.00
2018-07-11T09:33:10.849Z,13.03
2018-07-11T09:35:39.261Z,11.30
2018-07-11T09:38:07.559Z,8.63
2018-07-11T09:40:35.980Z,10.53
2018-07-11T09:43:04.530Z,7.67
2018-07-11T09:45:32.929Z,8.60
2018-07-11T09:48:01.329Z,11.43
2018-07-11T09:50:29.741Z,12.60
2018-07-11T09:52:58.273Z,7.40
2018-07-11T09:55:26.830Z,14.70
2018-07-11T09:57:55.384Z,8.40
2018-07-11T10:00:29.434Z,10.00
2018-07-11T10:02:57.803Z,12.30
2018-07-11T10:05:26.307Z,13.00
2018-07-11T10:07:54.826Z,15.53
2018-07-11T10:10:23.223Z,8.97
2018-07-11T10:12:52.246Z,10.87
2018-07-11T10:15:20.634Z,8.13
2018-07-11T10:17:48.968Z,7.40
2018-07-11T10:20:17.358Z,8.33
2018-07-11T10:22:45.809Z,8.13
2018-07-11T10:25:14.175Z,8.83
2018-07-11T10:27:43.489Z,6.03
2018-07-11T10:30:11.961Z,10.50
2018-07-11T10:32:40.301Z,8.50
2018-07-11T10:35:08.674Z,8.73
2018-07-11T10:37:37.109Z,11.20
2018-07-11T10:40:05.603Z,4.63
2018-07-11T10:42:34.126Z,7.83
2018-07-11T10:45:02.591Z,5.43
2018-07-11T10:47:31.119Z,10.17
2018-07-11T10:49:59.489Z,7.20
2018-07-11T10:52:27.862Z,7.30
2018-07-11T10:54:56.354Z,10.83
2018-07-11T10:57:24.779Z,8.10
2018-07-11T10:59:53.244Z,8.40
2018-07-11T11:02:22.709Z,6.90
2018-07-11T11:04:51.229Z,8.00
2018-07-11T11:07:19.654Z,8.40
2018-07-11T11:09:48.157Z,8.53
2018-07-11T11:12:16.570Z,7.30
2018-07-11T11:14:45.034Z,7.97
2018-07-11T11:17:13.423Z,10.23
2018-07-11T11:19:41.821Z,6.37
2018-07-11T11:22:10.250Z,3.77
2018-07-11T11:24:38.758Z,5.90
2018-07-11T11:27:07.220Z,9.60
2018-07-11T11:29:35.574Z,7.00
2018-07-11T11:32:04.027Z,6.33
2018-07-11T11:34:32.437Z,4.97
2018-07-11T11:37:00.861Z,9.93
2018-07-11T11:39:29.317Z,11.33
2018-07-11T11:41:57.792Z,6.60
2018-07-11T11:44:26.169Z,9.57
2018-07-11T11:46:59.101Z,4.77
2018-07-11T11:49:27.399Z,6.33
2018-07-11T11:51:56.040Z,11.43
2018-07-11T11:54:24.578Z,7.40
2018-07-11T11:56:53.354Z,7.10
2018-07-11T11:59:22.594Z,5.80
2018-07-11T12:01:51.166Z,7.17
2018-07-11T12:04:19.630Z,8.60
2018-07-11T12:06:48.241Z,5.63
2018-07-11T12:09:17.120Z,6.03
2018-07-11T12:11:45.613Z,8.10
2018-07-11T12:14:14.762Z,5.50
2018-07-11T12:16:43.731Z,7.40
2018-07-11T12:19:12.165Z,12.10
2018-07-11T12:21:41.126Z,7.07
2018-07-11T12:24:09.619Z,6.30
2018-07-11T12:26:38.064Z,5.30
2018-07-11T12:29:06.505Z,6.93
2018-07-11T12:31:34.925Z,7.67
2018-07-11T12:34:03.394Z,7.00
2018-07-11T12:36:32.211Z,9.50
2018-07-11T12:39:00.639Z,5.87
2018-07-11T12:41:29.048Z,9.57
2018-07-11T12:43:57.460Z,7.10
2018-07-11T12:46:25.925Z,6.13
2018-07-11T12:48:59.784Z,5.67
2018-07-11T12:51:28.306Z,5.03
2018-07-11T12:53:56.766Z,6.83
2018-07-11T12:56:26.420Z,5.97
2018-07-11T12:58:55.446Z,7.77
2018-07-11T13:01:23.968Z,6.57
2018-07-11T13:03:55.122Z,7.00
2018-07-11T13:06:25.414Z,7.70
2018-07-11T13:08:53.811Z,5.90
2018-07-11T13:11:22.272Z,9.47
2018-07-11T13:13:51.286Z,6.50
2018-07-11T13:16:19.761Z,5.23
2018-07-11T13:18:48.475Z,4.80
2018-07-11T13:21:16.954Z,8.73
2018-07-11T13:23:45.428Z,6.37
2018-07-11T13:26:14.008Z,6.00
2018-07-11T13:28:42.382Z,5.60
2018-07-11T13:31:10.930Z,7.10
2018-07-11T13:33:42.029Z,5.23
2018-07-11T13:36:10.517Z,5.13
2018-07-11T13:38:38.933Z,5.20
2018-07-11T13:41:07.653Z,8.37
2018-07-11T13:43:36.021Z,9.03
2018-07-11T13:46:04.608Z,7.40
2018-07-11T13:48:33.004Z,4.87
2018-07-11T13:51:01.383Z,6.90
2018-07-11T13:53:30.411Z,8.53
2018-07-11T13:55:59.189Z,8.93
2018-07-11T13:58:27.746Z,7.37
2018-07-11T14:00:56.835Z,6.03
2018-07-11T14:03:25.319Z,5.40
2018-07-11T14:05:53.845Z,6.17
2018-07-11T14:08:22.339Z,4.60
2018-07-11T14:10:50.912Z,7.77
2018-07-11T14:13:19.612Z,6.10
2018-07-11T14:15:48.049Z,3.70
2018-07-11T14:18:16.306Z,3.87
2018-07-11T14:20:44.705Z,7.93
2018-07-11T14:23:13.071Z,6.23
2018-07-11T14:25:41.991Z,6.77
2018-07-11T14:28:10.493Z,6.47
2018-07-11T14:30:39.236Z,4.40
2018-07-11T14:33:08.953Z,5.87
2018-07-11T14:35:37.340Z,5.37
2018-07-11T14:38:05.729Z,3.70
2018-07-11T14:40:34.210Z,5.60
2018-07-11T14:43:02.686Z,4.43
2018-07-11T14:45:33.092Z,7.23
2018-07-11T14:48:07.112Z,5.27
2018-07-11T14:50:35.651Z,7.00
2018-07-11T14:53:05.004Z,4.40
2018-07-11T14:55:33.617Z,4.70
2018-07-11T14:58:02.006Z,4.00
2018-07-11T15:00:31.126Z,3.73
2018-07-11T15:02:59.781Z,12.90
2018-07-11T15:05:28.448Z,9.53
2018-07-11T15:07:57.234Z,4.50
2018-07-11T15:10:26.007Z,8.03
2018-07-11T15:12:54.460Z,5.23
2018-07-11T15:15:22.925Z,5.80
2018-07-11T15:17:51.348Z,6.80
2018-07-11T15:20:19.840Z,7.17
2018-07-11T15:22:48.234Z,4.13
2018-07-11T15:25:17.324Z,4.43
2018-07-11T15:27:45.807Z,4.67
2018-07-11T15:30:14.280Z,3.53
2018-07-11T15:32:42.813Z,3.50
2018-07-11T15:35:11.226Z,5.03
2018-07-11T15:37:39.768Z,3.37
2018-07-11T15:40:08.253Z,4.40
2018-07-11T15:42:36.770Z,4.70
2018-07-11T15:45:05.804Z,2.67
2018-07-11T15:47:35.960Z,3.13
2018-07-11T15:50:04.532Z,2.97
2018-07-11T15:52:33.677Z,3.97
2018-07-11T15:55:04.674Z,5.20
2018-07-11T15:57:37.490Z,2.93
2018-07-11T16:00:11.365Z,2.90
2018-07-11T16:02:46.707Z,3.37
2018-07-11T16:05:19.713Z,6.50
2018-07-11T16:07:50.273Z,4.20
2018-07-11T16:10:27.968Z,4.10
2018-07-11T16:12:56.488Z,2.97
2018-07-11T16:15:24.937Z,4.83
2018-07-11T16:17:53.339Z,3.50
2018-07-11T16:20:21.877Z,5.80
2018-07-11T16:22:50.374Z,3.30
2018-07-11T16:25:18.846Z,3.57
2018-07-11T16:27:47.730Z,2.70
2018-07-11T16:30:19.074Z,3.47
2018-07-11T16:32:47.451Z,2.80
2018-07-11T16:35:15.902Z,3.00
2018-07-11T16:37:44.383Z,3.87
2018-07-11T16:40:12.884Z,9.87
2018-07-11T16:42:42.011Z,3.00
2018-07-11T16:45:10.404Z,2.57
2018-07-11T16:47:38.993Z,3.30
2018-07-11T16:50:07.755Z,2.83
2018-07-11T16:52:36.452Z,4.90
2018-07-11T16:55:04.877Z,6.43
2018-07-11T16:57:44.204Z,3.63
2018-07-11T17:00:12.703Z,6.07
2018-07-11T17:02:43.934Z,3.67
2018-07-11T17:05:18.885Z,4.17
2018-07-11T17:07:51.935Z,5.23
2018-07-11T17:10:22.424Z,3.10
2018-07-11T17:12:59.844Z,6.03
2018-07-11T17:15:31.286Z,3.70
2018-07-11T17:17:59.970Z,2.47
2018-07-11T17:20:28.610Z,3.93
2018-07-11T17:23:05.093Z,5.03
2018-07-11T17:25:40.301Z,4.70
2018-07-11T17:28:08.913Z,4.10
2018-07-11T17:30:38.959Z,7.90
2018-07-11T17:33:08.909Z,3.57
2018-07-11T17:35:52.019Z,5.23
2018-07-11T17:38:26.070Z,2.40
2018-07-11T17:40:55.762Z,2.80
2018-07-11T17:43:32.834Z,5.10
2018-07-11T17:46:02.356Z,3.80
2018-07-11T17:48:59.375Z,4.83
2018-07-11T17:51:43.864Z,3.40
2018-07-11T17:54:12.595Z,2.90
2018-07-11T17:56:54.740Z,3.20
2018-07-11T18:01:36.136Z,3.10
2018-07-11T18:06:27.145Z,4.23
2018-07-11T18:09:07.225Z,3.90
2018-07-11T18:11:52.241Z,2.87
2018-07-11T18:14:43.803Z,4.07
2018-07-11T18:17:22.651Z,6.97
2018-07-11T18:20:26.394Z,9.03
2018-07-11T18:23:17.585Z,3.93
2018-07-11T18:26:07.874Z,5.33
2018-07-11T18:28:53.531Z,5.10
2018-07-11T18:31:41.229Z,5.80
2018-07-11T18:36:32.440Z,3.60
2018-07-11T18:40:08.209Z,7.30
2018-07-11T18:43:51.568Z,7.13
2018-07-11T18:47:01.736Z,8.33
2018-07-11T18:49:38.046Z,4.10
2018-07-11T18:52:17.825Z,4.77
2018-07-11T18:56:16.044Z,5.83
2018-07-11T18:59:03.271Z,9.40
2018-07-11T19:01:55.047Z,5.07
2018-07-11T19:04:48.569Z,3.00
2018-07-11T19:09:26.775Z,4.20
2018-07-11T19:11:56.902Z,3.87
2018-07-11T19:14:37.287Z,5.20
2018-07-11T19:17:23.908Z,4.93
2018-07-11T19:21:12.774Z,5.40
2018-07-11T19:24:02.494Z,8.13
2018-07-11T19:26:47.980Z,3.37
2018-07-11T19:37:33.179Z,2.73
2018-07-11T19:40:46.488Z,3.10
2018-07-11T19:44:32.559Z,5.90
2018-07-11T19:47:12.917Z,4.80
2018-07-11T19:49:55.995Z,9.63
2018-07-11T19:54:09.663Z,6.77
2018-07-11T19:56:43.927Z,5.97
2018-07-11T19:59:12.864Z,5.83
2018-07-11T20:01:41.657Z,6.20
2018-07-11T20:04:11.711Z,6.60
2018-07-11T20:06:40.205Z,6.00
2018-07-11T20:09:09.013Z,3.97
2018-07-11T20:11:37.462Z,6.97
2018-07-11T20:14:06.262Z,4.67
2018-07-11T20:16:35.581Z,3.90
2018-07-11T20:19:04.175Z,5.57
2018-07-11T20:21:32.733Z,4.60
2018-07-11T20:24:01.315Z,4.93
2018-07-11T20:26:29.734Z,3.60
2018-07-11T20:28:59.322Z,4.47
2018-07-11T20:31:27.946Z,4.20
2018-07-11T20:33:56.469Z,5.73
2018-07-11T20:36:24.935Z,6.40
2018-07-11T20:38:53.298Z,9.63
2018-07-11T20:41:21.866Z,4.33
2018-07-11T20:43:50.459Z,2.90
2018-07-11T20:46:19.173Z,4.70
2018-07-11T20:48:47.747Z,4.87
2018-07-11T20:51:22.827Z,4.20
2018-07-11T20:53:51.128Z,4.10
2018-07-11T20:56:19.592Z,4.57
2018-07-11T20:59:04.999Z,4.50
2018-07-11T21:01:50.276Z,4.70
2018-07-11T21:05:39.857Z,8.67
2018-07-11T21:10:34.407Z,5.13
2018-07-11T21:13:24.622Z,6.63
2018-07-11T21:19:16.625Z,4.93
2018-07-11T21:21:45.100Z,5.47
2018-07-11T21:24:13.687Z,6.67
2018-07-11T21:26:42.266Z,5.50
2018-07-11T21:29:10.853Z,9.40
2018-07-11T21:31:39.275Z,9.53
2018-07-11T21:34:07.789Z,5.70
2018-07-11T21:36:36.316Z,5.40
2018-07-11T21:39:05.294Z,5.00
2018-07-11T21:41:35.531Z,5.40
2018-07-11T21:44:04.083Z,4.73
2018-07-11T21:46:32.583Z,4.33
2018-07-11T21:49:00.927Z,5.00
2018-07-11T21:51:29.416Z,10.07
2018-07-11T21:53:57.839Z,7.40
2018-07-11T21:56:26.228Z,6.67
2018-07-11T21:58:55.780Z,8.43
2018-07-11T22:01:24.182Z,8.90
2018-07-11T22:03:52.629Z,15.30
2018-07-11T22:06:21.020Z,9.10
2018-07-11T22:08:49.350Z,7.63
2018-07-11T22:11:17.771Z,5.73
2018-07-11T22:13:46.201Z,8.83
2018-07-11T22:16:14.586Z,5.97
2018-07-11T22:18:44.228Z,5.20
2018-07-11T22:21:11.905Z,3.80
2018-07-11T22:23:38.679Z,5.47
2018-07-11T22:26:05.335Z,5.27
2018-07-11T22:28:32.002Z,4.57
2018-07-11T22:30:58.684Z,4.30
2018-07-11T22:33:25.348Z,12.13
2018-07-11T22:35:51.981Z,10.63
2018-07-11T22:38:18.612Z,6.47
2018-07-11T22:40:45.661Z,6.23
2018-07-11T22:43:12.266Z,6.80
2018-07-11T22:45:38.889Z,5.37
2018-07-11T22:48:05.506Z,3.60
2018-07-11T22:50:32.093Z,5.23
2018-07-11T22:52:58.697Z,6.90
2018-07-11T22:55:25.338Z,9.43
2018-07-11T22:57:52.361Z,32.83
2018-07-11T23:00:18.977Z,10.00
2018-07-11T23:02:45.597Z,8.07
2018-07-11T23:05:12.219Z,10.50
2018-07-11T23:07:38.842Z,4.87
2018-07-11T23:10:05.498Z,7.77
2018-07-11T23:12:32.133Z,6.83
2018-07-11T23:14:58.784Z,5.37
2018-07-11T23:17:25.453Z,6.40
2018-07-11T23:19:52.142Z,5.10
2018-07-11T23:22:18.765Z,4.37
2018-07-11T23:24:45.378Z,5.33
2018-07-11T23:27:11.986Z,3.70
2018-07-11T23:29:38.590Z,4.47
2018-07-11T23:32:05.188Z,4.80
2018-07-11T23:34:31.805Z,4.83
2018-07-11T23:36:58.430Z,4.67
2018-07-11T23:39:25.474Z,6.63
2018-07-11T23:41:52.145Z,7.47
2018-07-11T23:44:18.767Z,5.80
2018-07-11T23:46:45.829Z,7.90
2018-07-11T23:49:12.485Z,5.80
2018-07-11T23:51:39.575Z,4.80
2018-07-11T23:54:06.157Z,4.70
2018-07-11T23:56:32.763Z,4.50
2018-07-11T23:58:59.397Z,4.70
